createdAt,value
2023-01-17T00:02:07.350Z,97695.97
2023-01-17T00:04:52.938Z,97684.19
2023-01-17T00:07:40.545Z,97689.31
2023-01-17T00:10:10.763Z,97699.44
2023-01-17T00:12:39.974Z,97685.28
2023-01-17T00:15:09.106Z,97694.44
2023-01-17T00:17:36.839Z,97698.09
2023-01-17T00:20:22.231Z,97704.97
2023-01-17T00:23:07.720Z,97710.81
2023-01-17T00:25:56.418Z,97709.06
2023-01-17T00:28:25.277Z,97715.31
2023-01-17T00:30:52.391Z,97724.84
2023-01-17T00:33:19.587Z,97717.38
2023-01-17T00:35:46.290Z,97726.91
2023-01-17T00:38:14.690Z,97728.72
2023-01-17T00:40:43.051Z,97737.94
2023-01-17T00:43:29.926Z,97738.13
2023-01-17T00:46:17.179Z,97726.56
2023-01-17T00:49:03.192Z,97739.03
2023-01-17T00:51:50.498Z,97744.66
2023-01-17T00:54:36.732Z,97746.72
2023-01-17T00:57:23.652Z,97757.50
2023-01-17T01:00:09.062Z,97767.28
2023-01-17T01:02:56.790Z,97777.81
2023-01-17T01:05:42.709Z,97774.53
2023-01-17T01:08:39.354Z,97773.31
2023-01-17T01:11:26.840Z,97772.91
2023-01-17T01:14:12.716Z,97765.66
2023-01-17T01:16:58.215Z,97771.66
2023-01-17T01:19:45.198Z,97783.81
2023-01-17T01:22:30.533Z,97780.56
2023-01-17T01:25:15.909Z,97785.00
2023-01-17T01:28:01.204Z,97787.88
2023-01-17T01:30:46.632Z,97800.84
2023-01-17T01:33:21.364Z,97788.28
2023-01-17T01:35:52.480Z,97799.97
2023-01-17T01:38:21.857Z,97800.34
2023-01-17T01:40:52.113Z,97802.78
2023-01-17T01:43:21.469Z,97808.81
2023-01-17T01:45:54.100Z,97812.25
2023-01-17T01:48:34.356Z,97824.94
2023-01-17T01:51:07.221Z,97825.41
2023-01-17T01:53:38.353Z,97824.75
2023-01-17T01:56:11.928Z,97824.50
2023-01-17T01:58:41.776Z,97818.88
2023-01-17T02:01:10.434Z,97824.75
2023-01-17T02:03:40.866Z,97822.78
2023-01-17T02:06:20.291Z,97822.78
2023-01-17T02:08:48.662Z,97830.22
2023-01-17T02:11:16.553Z,97835.03
2023-01-17T02:13:44.478Z,97838.66
2023-01-17T02:16:24.161Z,97835.84
2023-01-17T02:19:01.095Z,97836.69
2023-01-17T02:21:35.751Z,97843.09
2023-01-17T02:24:47.254Z,97843.03
2023-01-17T02:27:26.775Z,97846.19
2023-01-17T02:30:21.779Z,97850.28
2023-01-17T02:33:02.421Z,97841.41
2023-01-17T02:35:39.165Z,97840.75
2023-01-17T02:38:25.417Z,97841.75
2023-01-17T02:40:58.009Z,97843.03
2023-01-17T02:43:26.505Z,97832.13
2023-01-17T02:45:55.581Z,97831.78
2023-01-17T02:48:27.084Z,97827.16
2023-01-17T02:51:29.797Z,97836.47
2023-01-17T02:54:18.246Z,97838.66
2023-01-17T02:56:54.686Z,97842.00
2023-01-17T02:59:34.819Z,97839.69
2023-01-17T03:02:14.894Z,97846.56
2023-01-17T03:04:48.598Z,97836.34
2023-01-17T03:07:20.759Z,97837.66
2023-01-17T03:09:53.684Z,97834.38
2023-01-17T03:12:22.070Z,97848.81
2023-01-17T03:14:49.706Z,97843.72
2023-01-17T03:17:18.868Z,97847.75
2023-01-17T03:19:46.500Z,97855.00
2023-01-17T03:22:14.214Z,97857.88
2023-01-17T03:24:41.876Z,97859.16
2023-01-17T03:27:09.730Z,97863.34
2023-01-17T03:29:37.407Z,97858.06
2023-01-17T03:32:05.516Z,97865.97
2023-01-17T03:34:34.525Z,97867.97
2023-01-17T03:37:02.201Z,97869.41
2023-01-17T03:39:30.001Z,97873.50
2023-01-17T03:41:57.726Z,97874.28
2023-01-17T03:44:25.411Z,97881.84
2023-01-17T03:46:53.155Z,97878.03
2023-01-17T03:49:20.881Z,97872.75
2023-01-17T03:51:49.921Z,97871.13
2023-01-17T03:54:17.583Z,97871.47
2023-01-17T03:56:45.239Z,97872.69
2023-01-17T03:59:13.311Z,97875.50
2023-01-17T04:01:41.181Z,97876.50
2023-01-17T04:04:08.902Z,97878.06
2023-01-17T04:06:36.562Z,97882.66
2023-01-17T04:09:05.607Z,97896.00
2023-01-17T04:11:33.253Z,97889.75
2023-01-17T04:14:00.943Z,97893.09
2023-01-17T04:16:31.232Z,97904.88
2023-01-17T04:18:59.191Z,97901.91
2023-01-17T04:21:26.904Z,97898.28
2023-01-17T04:23:54.616Z,97898.28
2023-01-17T04:26:23.638Z,97889.66
2023-01-17T04:28:51.391Z,97895.91
2023-01-17T04:31:19.183Z,97895.81
2023-01-17T04:33:46.942Z,97892.25
2023-01-17T04:36:14.697Z,97897.44
2023-01-17T04:38:42.677Z,97902.88
2023-01-17T04:41:10.360Z,97908.22
2023-01-17T04:43:39.394Z,97909.69
2023-01-17T04:46:10.910Z,97907.22
2023-01-17T04:48:38.730Z,97907.88
2023-01-17T04:51:07.445Z,97908.03
2023-01-17T04:53:35.290Z,97906.22
2023-01-17T04:56:03.099Z,97897.97
2023-01-17T04:58:31.023Z,97898.22
2023-01-17T05:01:04.157Z,97908.13
2023-01-17T05:03:32.620Z,97913.59
2023-01-17T05:06:00.412Z,97906.53
2023-01-17T05:08:28.815Z,97904.72
2023-01-17T05:10:56.910Z,97919.00
2023-01-17T05:13:24.609Z,97918.78
2023-01-17T05:15:52.650Z,97914.31
2023-01-17T05:18:21.656Z,97923.53
2023-01-17T05:20:49.430Z,97920.56
2023-01-17T05:23:17.619Z,97913.66
2023-01-17T05:25:45.282Z,97917.38
2023-01-17T05:28:14.016Z,97919.13
2023-01-17T05:30:41.862Z,97911.53
2023-01-17T05:33:10.288Z,97916.41
2023-01-17T05:35:39.405Z,97912.53
2023-01-17T05:38:07.140Z,97918.25
2023-01-17T05:40:34.972Z,97913.09
2023-01-17T05:43:04.187Z,97915.53
2023-01-17T05:45:33.998Z,97915.91
2023-01-17T05:48:02.183Z,97915.25
2023-01-17T05:50:32.025Z,97910.53
2023-01-17T05:53:02.881Z,97918.63
2023-01-17T05:55:31.421Z,97918.16
2023-01-17T05:57:59.614Z,97915.00
2023-01-17T06:00:27.742Z,97916.28
2023-01-17T06:02:57.188Z,97911.63
2023-01-17T06:05:26.326Z,97915.72
2023-01-17T06:07:54.815Z,97919.81
2023-01-17T06:10:24.731Z,97919.94
2023-01-17T06:13:01.828Z,97920.56
2023-01-17T06:15:29.760Z,97920.13
2023-01-17T06:17:57.444Z,97917.84
2023-01-17T06:20:25.250Z,97921.66
2023-01-17T06:22:52.957Z,97925.31
2023-01-17T06:25:20.578Z,97924.59
2023-01-17T06:27:50.432Z,97922.56
2023-01-17T06:30:18.548Z,97921.03
2023-01-17T06:32:46.323Z,97919.78
2023-01-17T06:35:14.065Z,97925.03
2023-01-17T06:37:41.861Z,97923.75
2023-01-17T06:40:11.145Z,97927.03
2023-01-17T06:42:38.911Z,97918.41
2023-01-17T06:45:09.481Z,97909.78
2023-01-17T06:47:39.074Z,97919.75
2023-01-17T06:50:08.152Z,97921.56
2023-01-17T06:52:36.264Z,97918.22
2023-01-17T06:55:03.982Z,97917.03
2023-01-17T06:57:31.658Z,97911.53
2023-01-17T06:59:59.337Z,97909.25
2023-01-17T07:02:28.399Z,97908.06
2023-01-17T07:04:56.108Z,97910.78
2023-01-17T07:07:24.888Z,97903.31
2023-01-17T07:09:52.551Z,97900.81
2023-01-17T07:12:20.281Z,97901.34
2023-01-17T07:14:47.941Z,97900.88
2023-01-17T07:17:15.648Z,97907.41
2023-01-17T07:19:44.915Z,97907.41
2023-01-17T07:22:12.635Z,97908.69
2023-01-17T07:24:40.312Z,97902.69
2023-01-17T07:27:08.656Z,97901.72
2023-01-17T07:29:36.458Z,97891.81
2023-01-17T07:32:04.397Z,97895.06
2023-01-17T07:34:32.154Z,97897.25
2023-01-17T07:37:01.933Z,97890.38
2023-01-17T07:39:29.709Z,97894.63
2023-01-17T07:41:57.378Z,97895.00
2023-01-17T07:44:25.152Z,97893.63
2023-01-17T07:46:52.920Z,97890.53
2023-01-17T07:49:20.562Z,97883.38
2023-01-17T07:51:48.508Z,97876.47
2023-01-17T07:54:17.573Z,97873.66
2023-01-17T07:56:47.091Z,97876.53
2023-01-17T07:59:14.888Z,97864.03
2023-01-17T08:01:42.647Z,97859.66
2023-01-17T08:04:11.446Z,97844.25
2023-01-17T08:06:43.145Z,97835.53
2023-01-17T08:09:10.994Z,97834.06
2023-01-17T08:11:40.088Z,97839.50
2023-01-17T08:14:07.777Z,97838.44
2023-01-17T08:16:35.516Z,97837.47
2023-01-17T08:19:03.280Z,97832.19
2023-01-17T08:21:30.970Z,97838.97
2023-01-17T08:23:58.667Z,97824.88
2023-01-17T08:26:26.358Z,97832.59
2023-01-17T08:29:00.322Z,97839.41
2023-01-17T08:31:28.443Z,97835.72
2023-01-17T08:33:57.532Z,97835.13
2023-01-17T08:36:27.475Z,97840.63
2023-01-17T08:38:55.751Z,97833.41
2023-01-17T08:41:24.609Z,97828.16
2023-01-17T08:43:53.300Z,97841.91
2023-01-17T08:46:22.957Z,97837.28
2023-01-17T08:48:54.144Z,97847.56
2023-01-17T08:51:21.851Z,97851.31
2023-01-17T08:53:49.669Z,97847.88
2023-01-17T08:56:17.405Z,97845.88
2023-01-17T08:58:45.305Z,97842.84
2023-01-17T09:01:13.144Z,97836.47
2023-01-17T09:03:42.525Z,97846.53
2023-01-17T09:06:12.467Z,97846.34
2023-01-17T09:08:40.255Z,97844.13
2023-01-17T09:11:09.714Z,97851.56
2023-01-17T09:13:37.829Z,97861.66
2023-01-17T09:16:06.820Z,97861.56
2023-01-17T09:18:36.116Z,97869.38
2023-01-17T09:21:13.205Z,97864.97
2023-01-17T09:23:41.649Z,97871.16
2023-01-17T09:26:20.672Z,97864.78
2023-01-17T09:28:48.719Z,97868.53
2023-01-17T09:31:17.575Z,97876.31
2023-01-17T09:33:45.599Z,97878.78
2023-01-17T09:36:15.198Z,97879.44
2023-01-17T09:38:43.009Z,97873.28
2023-01-17T09:41:22.945Z,97876.59
2023-01-17T09:43:54.882Z,97878.53
2023-01-17T09:46:26.633Z,97884.59
2023-01-17T09:49:00.361Z,97873.91
2023-01-17T09:51:29.637Z,97868.81
2023-01-17T09:53:57.558Z,97871.25
2023-01-17T09:56:30.277Z,97874.31
2023-01-17T09:59:21.035Z,97876.72
2023-01-17T10:01:56.808Z,97874.34
2023-01-17T10:04:44.647Z,97871.75
2023-01-17T10:07:27.330Z,97873.38
2023-01-17T10:10:10.895Z,97870.75
2023-01-17T10:12:44.603Z,97881.69
2023-01-17T10:15:29.578Z,97889.44
2023-01-17T10:18:07.343Z,97883.75
2023-01-17T10:24:04.644Z,97867.94
2023-01-17T10:26:34.089Z,97870.38
2023-01-17T10:29:06.098Z,97867.72
2023-01-17T10:31:40.625Z,97873.22
2023-01-17T10:34:16.279Z,97864.66
2023-01-17T10:36:49.381Z,97863.03
2023-01-17T10:39:22.186Z,97861.59
2023-01-17T10:41:56.225Z,97866.50
2023-01-17T10:44:30.578Z,97858.97
2023-01-17T10:47:07.603Z,97856.09
2023-01-17T10:49:35.423Z,97856.94
2023-01-17T10:52:13.516Z,97854.47
2023-01-17T10:55:09.542Z,97863.19
2023-01-17T10:57:40.553Z,97860.13
2023-01-17T11:00:31.022Z,97854.84
2023-01-17T11:02:59.578Z,97845.47
2023-01-17T11:05:29.363Z,97845.47
2023-01-17T11:08:02.158Z,97853.41
2023-01-17T11:10:44.484Z,97848.94
2023-01-17T11:13:26.021Z,97844.47
2023-01-17T11:15:57.801Z,97840.81
2023-01-17T11:18:28.670Z,97835.53
2023-01-17T11:21:12.206Z,97840.41
2023-01-17T11:23:42.636Z,97818.22
2023-01-17T11:26:13.778Z,97818.22
2023-01-17T11:28:42.316Z,97818.03
2023-01-17T11:31:25.977Z,97817.47
2023-01-17T11:34:09.550Z,97820.69
2023-01-17T11:36:37.277Z,97808.28
2023-01-17T11:39:07.895Z,97804.63
2023-01-17T11:41:39.714Z,97804.03
2023-01-17T11:44:22.689Z,97785.31
2023-01-17T11:46:50.555Z,97783.69
2023-01-17T11:49:25.701Z,97782.44
2023-01-17T11:51:56.120Z,97783.47
2023-01-17T11:54:28.348Z,97777.16
2023-01-17T11:57:00.540Z,97784.84
2023-01-17T11:59:31.577Z,97778.34
2023-01-17T12:02:35.663Z,97775.88
2023-01-17T12:05:15.654Z,97763.66
2023-01-17T12:07:54.897Z,97767.72
2023-01-17T12:10:26.561Z,97767.72
2023-01-17T12:13:25.659Z,97766.59
2023-01-17T12:16:22.095Z,97759.50
2023-01-17T12:18:59.100Z,97752.19
2023-01-17T12:21:39.193Z,97752.00
2023-01-17T12:24:26.317Z,97743.28
2023-01-17T12:27:02.423Z,97734.53
2023-01-17T12:29:48.939Z,97743.06
2023-01-17T12:32:32.349Z,97733.91
2023-01-17T12:35:06.517Z,97726.59
2023-01-17T12:37:38.948Z,97725.78
2023-01-17T12:40:18.361Z,97723.13
2023-01-17T12:42:52.898Z,97716.44
2023-01-17T12:45:26.925Z,97708.91
2023-01-17T12:48:01.429Z,97705.25
2023-01-17T12:50:35.435Z,97702.59
2023-01-17T12:53:13.442Z,97700.38
2023-01-17T12:55:48.229Z,97695.91
2023-01-17T12:58:21.941Z,97684.94
2023-01-17T13:01:00.574Z,97681.63
2023-01-17T13:03:42.876Z,97684.09
2023-01-17T13:06:29.060Z,97680.25
2023-01-17T13:09:01.625Z,97678.81
2023-01-17T13:11:34.738Z,97671.69
2023-01-17T13:14:03.168Z,97673.13
2023-01-17T13:16:41.960Z,97674.16
2023-01-17T13:19:20.045Z,97673.56
2023-01-17T13:21:49.458Z,97680.06
2023-01-17T13:24:33.765Z,97674.16
2023-01-17T13:27:14.642Z,97671.94
2023-01-17T13:29:58.494Z,97672.53
2023-01-17T13:32:49.827Z,97668.28
2023-01-17T13:35:23.511Z,97670.13
2023-01-17T13:38:10.318Z,97663.00
2023-01-17T13:40:50.728Z,97662.59
2023-01-17T13:43:22.174Z,97663.41
2023-01-17T13:45:55.292Z,97656.88
2023-01-17T13:48:33.235Z,97655.50
2023-01-17T13:51:03.157Z,97650.00
2023-01-17T13:53:49.193Z,97646.72
2023-01-17T13:56:26.290Z,97641.25
2023-01-17T13:59:02.533Z,97634.34
2023-01-17T14:01:53.752Z,97634.34
2023-01-17T14:04:24.415Z,97635.38
2023-01-17T14:07:01.054Z,97638.19
2023-01-17T14:09:52.561Z,97637.81
2023-01-17T14:12:32.080Z,97637.81
2023-01-17T14:15:02.183Z,97641.00
2023-01-17T14:17:59.158Z,97635.72
2023-01-17T14:20:44.277Z,97642.25
2023-01-17T14:23:38.655Z,97646.28
2023-01-17T14:26:42.666Z,97649.53
2023-01-17T14:29:44.267Z,97648.34
2023-01-17T14:32:14.255Z,97657.66
2023-01-17T14:34:43.724Z,97661.31
2023-01-17T14:37:19.508Z,97667.59
2023-01-17T14:39:49.042Z,97663.13
2023-01-17T14:42:19.383Z,97672.25
2023-01-17T14:44:51.976Z,97683.44
2023-01-17T14:47:20.257Z,97671.63
2023-01-17T14:49:47.962Z,97673.06
2023-01-17T14:52:18.974Z,97682.78
2023-01-17T14:54:51.602Z,97677.72
2023-01-17T14:57:27.621Z,97677.09
2023-01-17T15:00:14.860Z,97682.78
2023-01-17T15:02:44.779Z,97687.63
2023-01-17T15:05:17.268Z,97689.06
2023-01-17T15:07:50.546Z,97687.81
2023-01-17T15:10:21.875Z,97687.44
2023-01-17T15:12:49.820Z,97690.88
2023-01-17T15:15:39.852Z,97684.19
2023-01-17T15:18:19.486Z,97684.38
2023-01-17T15:20:55.970Z,97691.06
2023-01-17T15:23:30.514Z,97683.72
2023-01-17T15:25:59.803Z,97686.38
2023-01-17T15:28:30.741Z,97686.38
2023-01-17T15:31:11.241Z,97691.66
2023-01-17T15:33:42.473Z,97687.78
2023-01-17T15:36:14.866Z,97678.44
2023-01-17T15:38:51.597Z,97686.53
2023-01-17T15:41:23.911Z,97684.53
2023-01-17T15:43:51.913Z,97685.34
2023-01-17T15:46:25.865Z,97686.16
2023-01-17T15:48:53.734Z,97687.16
2023-01-17T15:51:41.510Z,97683.28
2023-01-17T15:54:37.109Z,97682.66
2023-01-17T15:57:18.083Z,97679.00
2023-01-17T15:59:48.880Z,97673.75
2023-01-17T16:02:38.823Z,97679.44
2023-01-17T16:05:41.880Z,97673.16
2023-01-17T16:08:44.959Z,97679.81
2023-01-17T16:11:15.707Z,97674.91
2023-01-17T16:13:47.213Z,97674.72
2023-01-17T16:16:18.219Z,97678.38
2023-01-17T16:18:47.574Z,97680.41
2023-01-17T16:21:21.530Z,97673.69
2023-01-17T16:23:49.490Z,97678.13
2023-01-17T16:26:18.691Z,97672.88
2023-01-17T16:28:46.732Z,97668.59
2023-01-17T16:31:14.688Z,97670.63
2023-01-17T16:33:43.505Z,97669.59
2023-01-17T16:36:15.046Z,97668.78
2023-01-17T16:38:43.332Z,97671.63
2023-01-17T16:41:12.101Z,97675.88
2023-01-17T16:43:41.270Z,97673.25
2023-01-17T16:46:11.971Z,97673.25
2023-01-17T16:48:39.832Z,97677.31
2023-01-17T16:51:08.828Z,97683.97
2023-01-17T16:53:37.233Z,97681.53
2023-01-17T16:56:11.928Z,97679.06
2023-01-17T16:58:42.137Z,97677.25
2023-01-17T17:01:11.281Z,97681.94
2023-01-17T17:03:39.242Z,97681.69
2023-01-17T17:06:07.411Z,97669.53
2023-01-17T17:08:35.500Z,97677.25
2023-01-17T17:11:13.004Z,97667.94
2023-01-17T17:13:42.830Z,97672.56
2023-01-17T17:16:15.965Z,97671.16
2023-01-17T17:18:44.499Z,97670.16
2023-01-17T17:21:12.280Z,97679.88
2023-01-17T17:23:39.989Z,97672.16
2023-01-17T17:26:07.692Z,97674.19
2023-01-17T17:28:35.704Z,97679.47
2023-01-17T17:31:10.488Z,97678.66
2023-01-17T17:33:38.657Z,97673.97
2023-01-17T17:36:10.110Z,97671.09
2023-01-17T17:38:50.676Z,97672.72
2023-01-17T17:41:20.962Z,97681.47
2023-01-17T17:43:49.023Z,97684.09
2023-01-17T17:46:18.265Z,97688.13
2023-01-17T17:48:46.055Z,97689.97
2023-01-17T17:51:23.700Z,97684.91
2023-01-17T17:53:52.670Z,97698.28
2023-01-17T17:56:21.127Z,97696.63
2023-01-17T17:58:49.504Z,97696.63
2023-01-17T18:01:18.714Z,97703.09
2023-01-17T18:03:46.733Z,97703.72
2023-01-17T18:06:17.479Z,97699.47
2023-01-17T18:08:45.350Z,97707.16
2023-01-17T18:11:17.739Z,97710.78
2023-01-17T18:13:47.595Z,97712.78
2023-01-17T18:16:19.204Z,97716.44
2023-01-17T18:18:50.876Z,97711.59
2023-01-17T18:21:23.692Z,97711.34
2023-01-17T18:23:58.578Z,97711.16
2023-01-17T18:26:28.977Z,97717.22
2023-01-17T18:28:58.759Z,97718.03
2023-01-17T18:31:31.909Z,97715.94
2023-01-17T18:34:01.388Z,97729.53
2023-01-17T18:36:29.427Z,97727.88
2023-01-17T18:38:58.175Z,97726.81
2023-01-17T18:41:29.757Z,97726.63
2023-01-17T18:43:57.662Z,97735.72
2023-01-17T18:46:27.899Z,97738.34
2023-01-17T18:48:57.780Z,97739.38
2023-01-17T18:51:26.456Z,97736.94
2023-01-17T18:53:54.948Z,97736.94
2023-01-17T18:56:24.026Z,97737.53
2023-01-17T18:58:52.118Z,97747.84
2023-01-17T19:01:22.270Z,97742.56
2023-01-17T19:03:54.089Z,97739.56
2023-01-17T19:06:24.794Z,97745.44
2023-01-17T19:08:52.696Z,97747.47
2023-01-17T19:11:21.823Z,97750.47
2023-01-17T19:13:50.368Z,97754.38
2023-01-17T19:16:20.862Z,97758.81
2023-01-17T19:18:48.777Z,97762.81
2023-01-17T19:21:20.706Z,97773.34
2023-01-17T19:23:49.085Z,97770.72
2023-01-17T19:26:22.882Z,97778.06
2023-01-17T19:28:51.408Z,97778.69
2023-01-17T19:31:29.138Z,97788.22
2023-01-17T19:33:58.662Z,97785.34
2023-01-17T19:36:33.115Z,97781.06
2023-01-17T19:39:15.259Z,97794.44
2023-01-17T19:41:45.148Z,97787.16
2023-01-17T19:44:28.197Z,97791.59
2023-01-17T19:46:59.124Z,97786.97
2023-01-17T19:49:29.668Z,97792.84
2023-01-17T19:51:58.863Z,97786.72
2023-01-17T19:54:26.626Z,97787.47
2023-01-17T19:57:08.261Z,97786.66
2023-01-17T19:59:43.191Z,97781.03
2023-01-17T20:02:11.542Z,97776.50
2023-01-17T20:04:41.968Z,97784.97
2023-01-17T20:07:10.985Z,97777.88
2023-01-17T20:09:38.828Z,97780.81
2023-01-17T20:12:19.303Z,97782.19
2023-01-17T20:14:54.310Z,97785.59
2023-01-17T20:17:22.420Z,97786.59
2023-01-17T20:19:50.141Z,97784.22
2023-01-17T20:22:27.785Z,97783.22
2023-01-17T20:25:01.560Z,97787.28
2023-01-17T20:27:29.451Z,97784.47
2023-01-17T20:30:14.888Z,97782.81
2023-01-17T20:33:02.137Z,97787.03
2023-01-17T20:35:29.855Z,97781.31
2023-01-17T20:37:59.218Z,97792.03
2023-01-17T20:40:36.522Z,97787.97
2023-01-17T20:43:04.820Z,97780.63
2023-01-17T20:45:32.521Z,97779.81
2023-01-17T20:48:02.577Z,97783.66
2023-01-17T20:50:30.223Z,97788.00
2023-01-17T20:52:59.347Z,97789.44
2023-01-17T20:55:29.180Z,97787.00
2023-01-17T20:57:59.767Z,97785.00
2023-01-17T21:00:27.486Z,97787.00
2023-01-17T21:02:55.205Z,97790.44
2023-01-17T21:05:22.955Z,97789.38
2023-01-17T21:07:53.403Z,97793.38
2023-01-17T21:10:29.614Z,97800.28
2023-01-17T21:12:57.333Z,97798.47
2023-01-17T21:15:34.887Z,97797.81
2023-01-17T21:18:09.041Z,97804.28
2023-01-17T21:20:41.745Z,97794.31
2023-01-17T21:23:17.894Z,97804.19
2023-01-17T21:25:58.375Z,97813.88
2023-01-17T21:28:35.482Z,97809.66
2023-01-17T21:31:20.486Z,97813.28
2023-01-17T21:33:48.961Z,97815.09
2023-01-17T21:36:18.213Z,97813.47
2023-01-17T21:38:51.710Z,97815.16
2023-01-17T21:41:28.023Z,97815.91
2023-01-17T21:43:58.117Z,97816.91
2023-01-17T21:46:29.645Z,97811.81
2023-01-17T21:48:57.867Z,97815.63
2023-01-17T21:51:46.326Z,97806.03
2023-01-17T21:54:19.862Z,97810.66
2023-01-17T21:57:06.169Z,97819.34
2023-01-17T21:59:40.128Z,97816.91
2023-01-17T22:04:51.960Z,97827.72
2023-01-17T22:07:29.071Z,97821.00
2023-01-17T22:09:57.437Z,97820.56
2023-01-17T22:12:26.583Z,97833.31
2023-01-17T22:14:54.943Z,97824.19
2023-01-17T22:17:23.503Z,97832.50
2023-01-17T22:22:39.115Z,97830.41
2023-01-17T22:25:12.894Z,97835.94
2023-01-17T22:27:42.001Z,97834.69
2023-01-17T22:30:16.467Z,97837.94
2023-01-17T22:32:44.502Z,97835.94
2023-01-17T22:35:27.237Z,97836.94
2023-01-17T22:37:55.272Z,97839.22
2023-01-17T22:40:23.628Z,97839.56
2023-01-17T22:42:55.580Z,97836.34
2023-01-17T22:45:27.336Z,97833.72
2023-01-17T22:47:55.052Z,97836.66
2023-01-17T22:50:23.947Z,97835.53
2023-01-17T22:52:51.639Z,97830.50
2023-01-17T22:55:23.925Z,97835.75
2023-01-17T22:57:53.216Z,97831.75
2023-01-17T23:00:31.706Z,97833.56
2023-01-17T23:03:06.158Z,97833.22
2023-01-17T23:05:33.864Z,97832.22
2023-01-17T23:08:02.474Z,97831.41
2023-01-17T23:10:47.979Z,97831.41
2023-01-17T23:13:17.012Z,97822.22
2023-01-17T23:16:04.994Z,97827.50
2023-01-17T23:18:50.256Z,97830.13
2023-01-17T23:21:18.700Z,97826.66
2023-01-17T23:23:49.331Z,97824.94
2023-01-17T23:26:20.208Z,97825.94
2023-01-17T23:28:51.011Z,97819.09
2023-01-17T23:31:23.400Z,97827.56
2023-01-17T23:33:51.078Z,97819.69
2023-01-17T23:36:30.109Z,97826.75
2023-01-17T23:39:02.430Z,97826.97
2023-01-17T23:42:02.655Z,97823.53
2023-01-17T23:44:36.080Z,97822.72
2023-01-17T23:47:03.790Z,97824.69
2023-01-17T23:49:31.958Z,97829.31
2023-01-17T23:51:59.759Z,97823.06
2023-01-17T23:54:35.146Z,97821.88
2023-01-17T23:57:03.653Z,97820.44
2023-01-17T23:59:31.258Z,97819.59
